Terminal Aerodrome Forecast
Issued by NWS Duluth, MN

Home | Current Version | Previous Version | Text Only | Print | Product List | Glossary On
Versions: 1 2 3 4 5 6 7 8 9 10 11 12 13 14 15
171
FTUS43 KDLH 150520
TAFINL
TAF
KINL 150520Z 1506/1606 VRB03KT P6SM SCT080
     FM151700 26007KT P6SM SCT250
     FM152000 25007KT P6SM VCSH SCT025 BKN110
     FM160200 25005KT P6SM SCT090=

USA.gov is the U.S. government's official web portal to all federal, state and local government web resources and services.